createdAt,value
2022-12-23T00:00:45.296Z,61.45
2022-12-23T00:03:12.686Z,64.28
2022-12-23T00:05:40.578Z,61.45
2022-12-23T00:08:08.803Z,60.42
2022-12-23T00:10:38.966Z,61.25
2022-12-23T00:13:24.276Z,60.13
2022-12-23T00:15:51.317Z,59.88
2022-12-23T00:18:17.974Z,61.47
2022-12-23T00:20:44.699Z,56.97
2022-12-23T00:23:11.368Z,60.50
2022-12-23T00:25:42.469Z,57.72
2022-12-23T00:28:17.818Z,58.10
2022-12-23T00:30:53.366Z,56.55
2022-12-23T00:33:23.307Z,55.30
2022-12-23T00:35:50.990Z,54.97
2022-12-23T00:38:38.804Z,53.55
2022-12-23T00:41:25.135Z,56.92
2022-12-23T00:43:51.921Z,56.92
2022-12-23T00:46:21.439Z,58.60
2022-12-23T00:49:06.863Z,55.22
2022-12-23T00:51:33.576Z,55.10
2022-12-23T00:54:00.408Z,55.22
2022-12-23T00:56:27.141Z,54.90
2022-12-23T00:58:53.969Z,58.38
2022-12-23T01:01:39.425Z,57.42
2022-12-23T01:04:25.063Z,54.20
2022-12-23T01:06:51.919Z,52.13
2022-12-23T01:09:18.783Z,53.35
2022-12-23T01:11:45.450Z,54.33
2022-12-23T01:14:12.884Z,51.83
2022-12-23T01:16:40.941Z,55.33
2022-12-23T01:19:07.847Z,51.35
2022-12-23T01:21:34.981Z,50.22
2022-12-23T01:24:02.085Z,54.22
2022-12-23T01:26:28.766Z,52.13
2022-12-23T01:28:57.433Z,50.20
2022-12-23T01:31:28.507Z,50.40
2022-12-23T01:33:55.521Z,48.28
2022-12-23T01:36:23.061Z,49.97
2022-12-23T01:38:50.025Z,50.72
2022-12-23T01:41:40.350Z,50.05
2022-12-23T01:44:44.451Z,48.97
2022-12-23T01:47:16.581Z,42.47
2022-12-23T01:49:43.704Z,46.15
2022-12-23T01:52:12.008Z,49.33
2022-12-23T01:54:39.796Z,53.30
2022-12-23T01:57:06.887Z,51.42
2022-12-23T01:59:52.437Z,53.85
2022-12-23T02:02:39.106Z,50.75
2022-12-23T02:05:06.167Z,50.85
2022-12-23T02:07:51.972Z,52.75
2022-12-23T02:10:18.752Z,53.78
2022-12-23T02:12:55.058Z,61.40
2022-12-23T02:15:50.869Z,62.15
2022-12-23T02:18:17.568Z,58.42
2022-12-23T02:21:12.392Z,60.20
2022-12-23T02:23:50.815Z,60.42
2022-12-23T02:26:36.007Z,62.60
2022-12-23T02:29:39.770Z,67.68
2022-12-23T02:32:26.609Z,67.22
2022-12-23T02:35:03.298Z,64.38
2022-12-23T02:37:36.904Z,65.85
2022-12-23T02:40:25.457Z,62.97
2022-12-23T02:43:14.063Z,60.40
2022-12-23T02:45:50.338Z,54.15
2022-12-23T02:48:30.086Z,53.03
2022-12-23T02:50:57.813Z,53.45
2022-12-23T02:53:37.574Z,52.28
2022-12-23T02:56:07.128Z,55.28
2022-12-23T02:58:40.545Z,54.83
2022-12-23T03:01:09.804Z,57.03
2022-12-23T03:03:37.890Z,54.42
2022-12-23T03:06:18.356Z,56.40
2022-12-23T03:08:46.077Z,53.25
2022-12-23T03:11:15.856Z,52.55
2022-12-23T03:13:55.163Z,50.35
2022-12-23T03:16:27.273Z,51.53
2022-12-23T03:19:14.021Z,50.13
2022-12-23T03:21:55.669Z,50.90
2022-12-23T03:24:41.089Z,51.45
2022-12-23T03:27:22.715Z,50.72
2022-12-23T03:30:02.174Z,52.13
2022-12-23T03:32:45.809Z,52.60
2022-12-23T03:35:16.628Z,52.17
2022-12-23T03:37:48.002Z,51.63
2022-12-23T03:40:28.559Z,51.27
2022-12-23T03:43:01.272Z,49.30
2022-12-23T03:45:39.705Z,51.72
2022-12-23T03:48:24.045Z,50.08
2022-12-23T03:50:58.892Z,52.65
2022-12-23T03:53:35.291Z,52.53
2022-12-23T03:56:14.712Z,53.78
2022-12-23T03:58:58.451Z,50.75
2022-12-23T04:01:38.865Z,49.10
2022-12-23T04:04:17.857Z,49.83
2022-12-23T04:06:55.399Z,47.30
2022-12-23T04:09:26.094Z,49.45
2022-12-23T04:11:53.412Z,53.58
2022-12-23T04:14:21.530Z,49.28
2022-12-23T04:16:54.918Z,48.05
2022-12-23T04:19:22.026Z,49.45
2022-12-23T04:21:48.936Z,49.55
2022-12-23T04:24:15.762Z,49.15
2022-12-23T04:26:42.663Z,48.03
2022-12-23T04:29:09.339Z,52.60
2022-12-23T04:31:36.084Z,50.65
2022-12-23T04:34:03.067Z,55.15
2022-12-23T04:36:29.727Z,52.03
2022-12-23T04:38:56.418Z,55.50
2022-12-23T04:41:24.427Z,54.92
2022-12-23T04:43:53.277Z,53.05
2022-12-23T04:46:20.765Z,51.60
2022-12-23T04:48:47.627Z,49.40
2022-12-23T04:51:14.276Z,50.08
2022-12-23T04:53:41.053Z,60.25
2022-12-23T04:56:07.733Z,58.40
2022-12-23T04:58:34.508Z,54.72
2022-12-23T05:01:07.520Z,57.28
2022-12-23T05:03:34.898Z,57.83
2022-12-23T05:06:01.820Z,58.97
2022-12-23T05:08:28.527Z,58.78
2022-12-23T05:10:55.343Z,64.50
2022-12-23T05:13:22.522Z,57.85
2022-12-23T05:15:50.711Z,57.65
2022-12-23T05:18:17.653Z,59.80
2022-12-23T05:20:45.059Z,56.25
2022-12-23T05:23:13.263Z,58.83
2022-12-23T05:25:40.372Z,61.90
2022-12-23T05:28:10.507Z,64.68
2022-12-23T05:30:37.390Z,60.08
2022-12-23T05:33:04.247Z,59.45
2022-12-23T05:35:31.101Z,59.05
2022-12-23T05:37:58.305Z,59.63
2022-12-23T05:40:27.666Z,61.70
2022-12-23T05:42:57.249Z,59.38
2022-12-23T05:45:24.065Z,58.92
2022-12-23T05:47:50.876Z,60.05
2022-12-23T05:50:19.012Z,60.08
2022-12-23T05:52:45.878Z,56.35
2022-12-23T05:55:12.768Z,56.17
2022-12-23T05:57:39.508Z,55.30
2022-12-23T06:00:06.847Z,56.50
2022-12-23T06:02:33.767Z,56.63
2022-12-23T06:05:00.569Z,54.58
2022-12-23T06:07:27.213Z,56.13
2022-12-23T06:09:53.814Z,54.88
2022-12-23T06:12:20.503Z,57.80
2022-12-23T06:14:47.278Z,59.08
2022-12-23T06:17:14.523Z,59.78
2022-12-23T06:19:41.393Z,61.10
2022-12-23T06:22:09.012Z,57.55
2022-12-23T06:24:35.589Z,62.50
2022-12-23T06:27:02.292Z,64.35
2022-12-23T06:29:29.332Z,68.93
2022-12-23T06:31:56.097Z,88.55
2022-12-23T06:34:22.913Z,87.72
2022-12-23T06:36:49.839Z,79.40
2022-12-23T06:39:16.572Z,69.57
2022-12-23T06:41:43.344Z,69.97
2022-12-23T06:44:10.315Z,70.68
2022-12-23T06:46:37.693Z,68.72
2022-12-23T06:49:10.947Z,66.13
2022-12-23T06:51:39.734Z,58.33
2022-12-23T06:54:06.607Z,67.30
2022-12-23T06:56:34.318Z,67.05
2022-12-23T06:59:01.261Z,65.47
2022-12-23T07:01:28.173Z,72.40
2022-12-23T07:03:56.586Z,74.90
2022-12-23T07:06:23.287Z,76.15
2022-12-23T07:08:51.267Z,60.22
2022-12-23T07:11:18.069Z,65.57
2022-12-23T07:13:46.432Z,67.13
2022-12-23T07:16:13.245Z,65.57
2022-12-23T07:18:40.183Z,65.78
2022-12-23T07:21:10.596Z,63.13
2022-12-23T07:23:44.616Z,61.42
2022-12-23T07:26:11.238Z,65.82
2022-12-23T07:28:38.367Z,69.07
2022-12-23T07:31:08.183Z,67.38
2022-12-23T07:33:34.744Z,70.18
2022-12-23T07:36:01.352Z,70.97
2022-12-23T07:38:29.585Z,76.95
2022-12-23T07:40:56.431Z,77.95
2022-12-23T07:43:23.039Z,73.25
2022-12-23T07:45:55.639Z,76.25
2022-12-23T07:48:26.208Z,76.65
2022-12-23T07:50:53.015Z,76.68
2022-12-23T07:53:19.710Z,79.15
2022-12-23T07:55:49.128Z,77.35
2022-12-23T07:58:19.662Z,77.43
2022-12-23T08:00:46.299Z,72.53
2022-12-23T08:03:13.031Z,74.40
2022-12-23T08:05:39.786Z,76.47
2022-12-23T08:08:06.526Z,77.78
2022-12-23T08:10:33.258Z,77.22
2022-12-23T08:13:02.916Z,80.03
2022-12-23T08:15:29.599Z,73.63
2022-12-23T08:17:56.735Z,62.20
2022-12-23T08:20:23.412Z,69.10
2022-12-23T08:22:50.036Z,66.35
2022-12-23T08:25:16.638Z,62.13
2022-12-23T08:27:43.413Z,62.22
2022-12-23T08:30:10.836Z,61.97
2022-12-23T08:32:37.461Z,62.58
2022-12-23T08:35:04.563Z,60.78
2022-12-23T08:37:31.505Z,63.80
2022-12-23T08:39:58.416Z,64.28
2022-12-23T08:42:25.061Z,62.50
2022-12-23T08:44:51.704Z,62.22
2022-12-23T08:47:18.448Z,67.40
2022-12-23T08:49:45.225Z,63.10
2022-12-23T08:52:11.854Z,60.97
2022-12-23T08:54:38.560Z,66.82
2022-12-23T08:57:05.327Z,65.35
2022-12-23T08:59:32.053Z,67.70
2022-12-23T09:01:59.821Z,71.03
2022-12-23T09:04:26.648Z,66.70
2022-12-23T09:06:53.614Z,65.53
2022-12-23T09:09:20.341Z,70.30
2022-12-23T09:11:46.941Z,64.00
2022-12-23T09:14:14.167Z,65.03
2022-12-23T09:16:40.898Z,67.32
2022-12-23T09:19:08.133Z,71.00
2022-12-23T09:21:35.027Z,67.28
2022-12-23T09:24:01.745Z,59.67
2022-12-23T09:26:30.665Z,57.15
2022-12-23T09:28:58.215Z,59.40
2022-12-23T09:31:30.475Z,62.33
2022-12-23T09:33:59.351Z,59.20
2022-12-23T09:36:26.178Z,63.70
2022-12-23T09:38:57.717Z,63.25
2022-12-23T09:41:54.935Z,64.00
2022-12-23T09:44:33.700Z,63.22
2022-12-23T09:47:03.558Z,63.90
2022-12-23T09:49:31.088Z,66.38
2022-12-23T09:52:05.599Z,63.95
2022-12-23T09:54:46.128Z,64.95
2022-12-23T09:57:24.881Z,62.17
2022-12-23T10:00:14.059Z,62.95
2022-12-23T10:02:52.999Z,64.05
2022-12-23T10:05:31.945Z,61.22
2022-12-23T10:08:07.099Z,59.85
2022-12-23T10:10:40.859Z,62.78
2022-12-23T10:13:16.076Z,65.78
2022-12-23T10:15:49.211Z,60.42
2022-12-23T10:18:28.267Z,63.20
2022-12-23T10:21:11.526Z,63.05
2022-12-23T10:23:42.658Z,61.47
2022-12-23T10:26:34.631Z,57.92
2022-12-23T10:29:18.796Z,61.10
2022-12-23T10:32:26.496Z,57.92
2022-12-23T10:35:14.624Z,58.60
2022-12-23T10:37:51.648Z,55.95
2022-12-23T10:40:29.621Z,56.35
2022-12-23T10:43:28.744Z,56.10
2022-12-23T10:46:17.692Z,56.35
2022-12-23T10:49:13.729Z,54.88
2022-12-23T10:51:49.839Z,55.80
2022-12-23T10:54:28.236Z,57.13
2022-12-23T10:56:55.615Z,58.95
2022-12-23T10:59:26.331Z,58.10
2022-12-23T11:02:05.360Z,57.80
2022-12-23T11:04:38.100Z,57.95
2022-12-23T11:07:41.587Z,58.10
2022-12-23T11:09:59.872Z,55.33
2022-12-23T11:12:42.458Z,52.00
2022-12-23T11:15:41.005Z,48.80
2022-12-23T11:18:13.986Z,48.03
2022-12-23T11:20:43.203Z,45.25
2022-12-23T11:23:30.998Z,44.58
2022-12-23T11:26:09.980Z,49.72
2022-12-23T11:28:39.669Z,46.78
2022-12-23T11:31:09.789Z,45.63
2022-12-23T11:33:40.142Z,46.45
2022-12-23T11:36:14.283Z,45.83
2022-12-23T11:39:03.846Z,48.15
2022-12-23T11:41:37.291Z,46.55
2022-12-23T11:44:11.895Z,46.40
2022-12-23T11:46:38.742Z,46.35
2022-12-23T11:49:15.805Z,47.17
2022-12-23T11:51:45.170Z,36.70
2022-12-23T11:54:20.833Z,36.65
2022-12-23T11:56:52.875Z,37.40
2022-12-23T11:59:31.921Z,37.42
2022-12-23T12:02:01.621Z,31.80
2022-12-23T12:04:33.694Z,28.27
2022-12-23T12:07:01.916Z,26.38
2022-12-23T12:09:31.764Z,28.92
2022-12-23T12:12:08.405Z,29.23
2022-12-23T12:14:52.525Z,29.58
2022-12-23T12:17:32.837Z,27.92
2022-12-23T12:20:10.499Z,27.63
2022-12-23T12:22:56.331Z,28.50
2022-12-23T12:25:47.997Z,27.00
2022-12-23T12:28:21.152Z,25.90
2022-12-23T12:30:55.037Z,25.08
2022-12-23T12:33:49.142Z,25.20
2022-12-23T12:36:38.691Z,23.85
2022-12-23T12:39:05.534Z,27.63
2022-12-23T12:41:46.473Z,23.58
2022-12-23T12:44:15.739Z,23.33
2022-12-23T12:46:50.983Z,23.42
2022-12-23T12:49:34.359Z,23.48
2022-12-23T12:52:13.352Z,21.88
2022-12-23T12:54:48.842Z,23.52
2022-12-23T12:57:18.315Z,23.73
2022-12-23T12:59:45.751Z,22.40
2022-12-23T13:03:00.238Z,20.95
2022-12-23T13:05:54.169Z,22.58
2022-12-23T13:08:55.824Z,20.90
2022-12-23T13:11:34.635Z,20.90
2022-12-23T13:14:13.228Z,21.35
2022-12-23T13:17:07.628Z,19.45
2022-12-23T13:19:55.397Z,20.83
2022-12-23T13:22:33.460Z,18.05
2022-12-23T13:25:12.153Z,16.50
2022-12-23T13:27:52.837Z,16.83
2022-12-23T13:30:23.857Z,15.82
2022-12-23T13:33:11.890Z,15.50
2022-12-23T13:36:04.656Z,15.05
2022-12-23T13:38:44.321Z,6.65
2022-12-23T13:41:40.129Z,5.97
2022-12-23T13:44:10.744Z,4.57
2022-12-23T13:46:56.153Z,5.13
2022-12-23T13:49:48.617Z,5.25
2022-12-23T13:52:29.031Z,6.72
2022-12-23T13:55:07.859Z,5.80
2022-12-23T13:57:55.539Z,5.32
2022-12-23T14:00:31.527Z,5.65
2022-12-23T14:02:58.310Z,5.88
2022-12-23T14:05:41.192Z,10.48
2022-12-23T14:08:20.363Z,5.60
2022-12-23T14:11:00.186Z,5.25
2022-12-23T14:13:38.100Z,5.30
2022-12-23T14:16:29.211Z,4.95
2022-12-23T14:19:30.134Z,5.60
2022-12-23T14:22:32.518Z,5.15
2022-12-23T14:25:23.728Z,5.88
2022-12-23T14:28:02.713Z,5.50
2022-12-23T14:30:40.294Z,5.60
2022-12-23T14:33:33.064Z,5.78
2022-12-23T14:36:22.414Z,5.68
2022-12-23T14:39:13.995Z,5.55
2022-12-23T14:41:50.720Z,5.18
2022-12-23T14:44:36.061Z,5.80
2022-12-23T14:47:05.617Z,5.30
2022-12-23T14:49:43.038Z,6.05
2022-12-23T14:52:46.218Z,5.00
2022-12-23T14:55:31.242Z,6.45
2022-12-23T14:58:07.801Z,5.22
2022-12-23T15:00:46.617Z,5.35
2022-12-23T15:03:13.603Z,7.35
2022-12-23T15:05:40.971Z,6.93
2022-12-23T15:08:42.274Z,7.13
2022-12-23T15:11:18.701Z,7.47
2022-12-23T15:13:45.813Z,7.30
2022-12-23T15:16:17.845Z,8.20
2022-12-23T15:18:55.530Z,9.43
2022-12-23T15:21:29.202Z,9.05
2022-12-23T15:23:55.898Z,11.27
2022-12-23T15:26:25.917Z,12.00
2022-12-23T15:28:52.727Z,14.48
2022-12-23T15:31:27.949Z,14.35
2022-12-23T15:34:05.457Z,11.07
2022-12-23T15:36:36.490Z,11.98
2022-12-23T15:39:10.467Z,12.68
2022-12-23T15:41:47.606Z,10.85
2022-12-23T15:44:23.257Z,12.32
2022-12-23T15:46:50.724Z,12.50
2022-12-23T15:49:19.735Z,11.45
2022-12-23T15:52:09.756Z,9.77
2022-12-23T15:54:53.472Z,10.65
2022-12-23T15:57:24.425Z,8.02
2022-12-23T15:59:51.397Z,7.80
2022-12-23T16:05:45.514Z,7.43
2022-12-23T16:08:21.710Z,6.88
2022-12-23T16:11:05.729Z,6.32
2022-12-23T16:13:33.372Z,6.40
2022-12-23T16:16:46.441Z,6.60
2022-12-23T16:19:39.759Z,5.40
2022-12-23T16:22:30.827Z,9.75
2022-12-23T16:25:11.972Z,6.20
2022-12-23T16:27:49.022Z,8.15
2022-12-23T16:30:19.453Z,8.70
2022-12-23T16:32:55.388Z,7.60
2022-12-23T16:35:30.207Z,7.68
2022-12-23T16:38:18.165Z,6.07
2022-12-23T16:40:53.296Z,8.82
2022-12-23T16:43:21.234Z,7.63
2022-12-23T16:45:53.096Z,9.52
2022-12-23T16:48:48.598Z,10.35
2022-12-23T16:51:20.474Z,11.05
2022-12-23T16:53:50.695Z,17.00
2022-12-23T16:56:19.864Z,18.48
2022-12-23T16:58:46.739Z,19.80
2022-12-23T17:01:31.437Z,19.90
2022-12-23T17:03:58.345Z,18.15
2022-12-23T17:06:25.985Z,20.10
2022-12-23T17:08:53.429Z,19.08
2022-12-23T17:11:23.063Z,18.77
2022-12-23T17:13:50.487Z,19.60
2022-12-23T17:16:20.281Z,20.10
2022-12-23T17:18:48.578Z,20.10
2022-12-23T17:21:26.663Z,20.10
2022-12-23T17:23:56.901Z,19.60
2022-12-23T17:26:23.554Z,18.92
2022-12-23T17:28:50.569Z,20.98
2022-12-23T17:31:26.347Z,23.05
2022-12-23T17:33:54.368Z,20.98
2022-12-23T17:36:21.941Z,22.48
2022-12-23T17:38:48.820Z,23.85
2022-12-23T17:41:27.319Z,25.17
2022-12-23T17:43:54.124Z,23.42
2022-12-23T17:46:21.321Z,24.08
2022-12-23T17:48:50.257Z,24.45
2022-12-23T17:51:19.242Z,23.95
2022-12-23T17:53:49.248Z,24.88
2022-12-23T17:56:20.761Z,24.77
2022-12-23T17:58:49.749Z,27.88
2022-12-23T18:01:16.885Z,22.67
2022-12-23T18:03:43.686Z,23.95
2022-12-23T18:06:19.034Z,23.10
2022-12-23T18:08:48.450Z,22.40
2022-12-23T18:11:34.743Z,19.95
2022-12-23T18:14:02.827Z,20.92
2022-12-23T18:16:29.821Z,21.15
2022-12-23T18:18:56.861Z,22.45
2022-12-23T18:21:29.113Z,21.00
2022-12-23T18:26:25.086Z,19.88
2022-12-23T18:28:54.356Z,20.20
2022-12-23T18:31:24.426Z,20.70
2022-12-23T18:33:51.826Z,21.00
2022-12-23T18:36:27.923Z,21.77
2022-12-23T18:38:55.167Z,21.10
2022-12-23T18:41:22.396Z,21.00
2022-12-23T18:43:50.079Z,21.13
2022-12-23T18:46:17.998Z,20.45
2022-12-23T18:48:44.664Z,20.95
2022-12-23T18:51:15.883Z,20.08
2022-12-23T18:53:43.702Z,22.15
2022-12-23T18:56:21.179Z,22.77
2022-12-23T18:58:48.171Z,21.30
2022-12-23T19:01:17.016Z,22.33
2022-12-23T19:03:45.067Z,21.67
2022-12-23T19:06:15.887Z,21.27
2022-12-23T19:08:44.150Z,20.80
2022-12-23T19:11:19.447Z,22.33
2022-12-23T19:13:46.885Z,22.42
2022-12-23T19:16:15.857Z,21.00
2022-12-23T19:18:43.205Z,21.83
2022-12-23T19:21:09.888Z,23.38
2022-12-23T19:23:37.358Z,20.23
2022-12-23T19:26:06.231Z,20.45
2022-12-23T19:28:33.675Z,20.52
2022-12-23T19:31:00.388Z,20.00
2022-12-23T19:33:27.149Z,19.77
2022-12-23T19:35:54.005Z,21.65
2022-12-23T19:38:21.120Z,25.58
2022-12-23T19:40:57.683Z,27.33
2022-12-23T19:43:24.376Z,27.10
2022-12-23T19:46:02.294Z,26.10
2022-12-23T19:48:29.751Z,22.20
2022-12-23T19:51:00.886Z,21.50
2022-12-23T19:53:28.738Z,21.63
2022-12-23T19:56:00.351Z,20.65
2022-12-23T19:58:28.535Z,21.30
2022-12-23T20:01:08.027Z,20.83
2022-12-23T20:03:35.585Z,21.70
2022-12-23T20:06:02.859Z,21.17
2022-12-23T20:08:29.779Z,22.55
2022-12-23T20:11:05.459Z,22.05
2022-12-23T20:13:33.077Z,22.85
2022-12-23T20:16:00.195Z,23.92
2022-12-23T20:18:27.227Z,23.77
2022-12-23T20:20:54.121Z,23.77
2022-12-23T20:23:20.880Z,23.60
2022-12-23T20:25:47.850Z,22.23
2022-12-23T20:28:14.445Z,20.20
2022-12-23T20:30:42.494Z,20.77
2022-12-23T20:33:09.996Z,20.38
2022-12-23T20:35:37.577Z,21.50
2022-12-23T20:38:04.220Z,19.55
2022-12-23T20:40:31.251Z,20.15
2022-12-23T20:42:58.572Z,19.83
2022-12-23T20:45:26.048Z,20.52
2022-12-23T20:47:54.159Z,20.58
2022-12-23T20:50:21.585Z,21.48
2022-12-23T20:52:48.287Z,21.20
2022-12-23T20:55:15.165Z,20.98
2022-12-23T20:57:44.819Z,20.42
2022-12-23T21:00:12.845Z,22.67
2022-12-23T21:02:40.787Z,22.13
2022-12-23T21:05:08.029Z,19.98
2022-12-23T21:07:34.696Z,20.25
2022-12-23T21:10:01.263Z,21.40
2022-12-23T21:12:28.093Z,22.05
2022-12-23T21:14:54.818Z,20.98
2022-12-23T21:17:23.226Z,21.42
2022-12-23T21:19:50.146Z,19.60
2022-12-23T21:22:16.786Z,20.35
2022-12-23T21:24:43.398Z,19.55
2022-12-23T21:27:10.054Z,19.60
2022-12-23T21:29:36.883Z,18.48
2022-12-23T21:32:03.745Z,20.17
2022-12-23T21:34:30.439Z,21.02
2022-12-23T21:36:57.062Z,18.25
2022-12-23T21:39:23.660Z,19.05
2022-12-23T21:41:51.442Z,19.42
2022-12-23T21:44:18.520Z,19.23
2022-12-23T21:46:45.296Z,19.83
2022-12-23T21:49:12.554Z,18.90
2022-12-23T21:51:40.985Z,19.23
2022-12-23T21:54:09.810Z,19.33
2022-12-23T21:56:36.869Z,20.60
2022-12-23T21:59:06.593Z,18.75
2022-12-23T22:01:33.941Z,18.63
2022-12-23T22:04:00.794Z,19.05
2022-12-23T22:06:30.532Z,18.50
2022-12-23T22:08:57.675Z,19.05
2022-12-23T22:11:27.228Z,17.80
2022-12-23T22:13:56.913Z,24.95
2022-12-23T22:16:25.361Z,20.00
2022-12-23T22:18:53.416Z,18.60
2022-12-23T22:21:22.442Z,15.65
2022-12-23T22:23:50.398Z,17.33
2022-12-23T22:26:24.585Z,19.60
2022-12-23T22:28:52.632Z,17.27
2022-12-23T22:31:37.049Z,17.63
2022-12-23T22:34:04.827Z,16.35
2022-12-23T22:36:31.993Z,16.88
2022-12-23T22:39:00.295Z,19.23
2022-12-23T22:41:28.809Z,18.58
2022-12-23T22:43:56.658Z,23.00
2022-12-23T22:46:24.739Z,20.65
2022-12-23T22:48:52.424Z,22.77
2022-12-23T22:51:28.388Z,22.70
2022-12-23T22:53:56.206Z,22.10
2022-12-23T22:56:24.544Z,23.13
2022-12-23T22:58:52.762Z,20.30
2022-12-23T23:01:27.403Z,21.75
2022-12-23T23:03:59.501Z,19.20
2022-12-23T23:06:28.891Z,19.83
2022-12-23T23:08:56.451Z,18.67
2022-12-23T23:11:24.253Z,20.17
2022-12-23T23:13:51.040Z,19.20
2022-12-23T23:16:17.770Z,18.85
2022-12-23T23:18:44.512Z,18.25
2022-12-23T23:21:13.214Z,20.83
2022-12-23T23:23:40.299Z,19.85
2022-12-23T23:26:09.139Z,21.45
2022-12-23T23:28:36.691Z,19.17
2022-12-23T23:31:40.010Z,21.17
2022-12-23T23:33:50.210Z,20.92
2022-12-23T23:36:17.006Z,18.02
2022-12-23T23:38:43.640Z,21.50
2022-12-23T23:41:10.312Z,19.90
2022-12-23T23:43:37.035Z,20.63
2022-12-23T23:46:04.009Z,19.50
2022-12-23T23:48:30.725Z,19.83
2022-12-23T23:51:06.129Z,20.05
2022-12-23T23:53:33.219Z,18.67
2022-12-23T23:56:07.319Z,20.23
2022-12-23T23:58:34.994Z,19.20
